createdAt,value
2022-07-30T00:01:01.530Z,984.7
2022-07-30T00:03:02.722Z,984.7
2022-07-30T00:05:03.705Z,984.6
2022-07-30T00:07:04.762Z,984.6
2022-07-30T00:09:06.100Z,984.6
2022-07-30T00:11:07.658Z,984.5
2022-07-30T00:13:08.648Z,984.6
2022-07-30T00:15:09.592Z,984.6
2022-07-30T00:17:10.756Z,984.5
2022-07-30T00:19:12.027Z,984.5
2022-07-30T00:21:20.041Z,984.5
2022-07-30T00:23:14.480Z,984.5
2022-07-30T00:25:15.659Z,984.5
2022-07-30T00:27:16.956Z,984.6
2022-07-30T00:29:18.696Z,984.6
2022-07-30T00:31:20.204Z,984.6
2022-07-30T00:33:21.215Z,984.5
2022-07-30T00:35:22.475Z,984.7
2022-07-30T00:37:23.901Z,984.7
2022-07-30T00:39:25.751Z,984.6
2022-07-30T00:41:27.486Z,984.7
2022-07-30T00:43:29.127Z,984.7
2022-07-30T00:45:30.165Z,984.8
2022-07-30T00:47:32.003Z,984.7
2022-07-30T00:49:33.178Z,984.8
2022-07-30T00:51:34.101Z,984.9
2022-07-30T00:53:35.561Z,984.8
2022-07-30T00:55:36.865Z,985
2022-07-30T00:57:37.945Z,984.9
2022-07-30T00:59:38.842Z,984.9
2022-07-30T01:01:40.803Z,984.8
2022-07-30T01:03:41.807Z,984.9
2022-07-30T01:05:43.418Z,984.9
2022-07-30T01:07:44.682Z,984.9
2022-07-30T01:09:48.049Z,984.9
2022-07-30T01:11:47.710Z,984.9
2022-07-30T01:13:49.334Z,984.8
2022-07-30T01:15:50.446Z,984.9
2022-07-30T01:17:52.787Z,984.9
2022-07-30T01:19:53.750Z,984.8
2022-07-30T01:21:55.345Z,984.8
2022-07-30T01:23:57.153Z,984.8
2022-07-30T01:26:42.272Z,984.8
2022-07-30T01:28:43.322Z,984.9
2022-07-30T01:30:44.494Z,984.7
2022-07-30T01:32:45.649Z,984.7
2022-07-30T01:34:46.700Z,984.7
2022-07-30T01:36:47.779Z,984.8
2022-07-30T01:38:49.395Z,984.7
2022-07-30T01:40:50.920Z,984.6
2022-07-30T01:42:52.138Z,984.6
2022-07-30T01:44:53.472Z,984.7
2022-07-30T01:46:55.013Z,984.7
2022-07-30T01:48:56.420Z,984.6
2022-07-30T01:50:58.182Z,984.5
2022-07-30T01:52:59.166Z,984.5
2022-07-30T01:55:00.401Z,984.5
2022-07-30T01:57:02.343Z,984.5
2022-07-30T01:59:03.686Z,984.5
2022-07-30T02:01:05.254Z,984.6
2022-07-30T02:03:06.556Z,984.6
2022-07-30T02:05:08.416Z,984.7
2022-07-30T02:07:09.747Z,984.6
2022-07-30T02:09:11.682Z,984.7
2022-07-30T02:11:12.469Z,984.8
2022-07-30T02:13:14.276Z,984.7
2022-07-30T02:15:15.615Z,984.6
2022-07-30T02:17:18.753Z,984.6
2022-07-30T02:19:18.427Z,984.7
2022-07-30T02:21:20.139Z,984.7
2022-07-30T02:23:21.693Z,984.6
2022-07-30T02:25:22.611Z,984.6
2022-07-30T02:27:23.567Z,984.6
2022-07-30T02:29:24.610Z,984.5
2022-07-30T02:31:26.259Z,984.6
2022-07-30T02:33:28.017Z,984.6
2022-07-30T02:35:29.641Z,984.5
2022-07-30T02:37:37.980Z,984.6
2022-07-30T02:39:31.982Z,984.6
2022-07-30T02:41:32.936Z,984.7
2022-07-30T02:43:36.212Z,984.8
2022-07-30T02:45:35.612Z,984.8
2022-07-30T02:47:36.955Z,984.9
2022-07-30T02:49:38.415Z,984.9
2022-07-30T02:51:39.704Z,984.9
2022-07-30T02:53:41.029Z,985
2022-07-30T02:55:41.998Z,984.9
2022-07-30T02:57:43.744Z,984.8
2022-07-30T02:59:44.629Z,984.8
2022-07-30T03:01:46.135Z,984.8
2022-07-30T03:03:47.103Z,985
2022-07-30T03:05:48.828Z,985.1
2022-07-30T03:07:50.287Z,985
2022-07-30T03:09:52.308Z,985
2022-07-30T03:11:53.093Z,985
2022-07-30T03:13:54.943Z,985
2022-07-30T03:15:56.808Z,985.1
2022-07-30T03:17:58.444Z,985.2
2022-07-30T03:20:00.207Z,985.1
2022-07-30T03:22:01.721Z,985.2
2022-07-30T03:24:03.444Z,985.2
2022-07-30T03:28:06.567Z,985.2
2022-07-30T03:30:07.467Z,985.2
2022-07-30T03:34:12.626Z,985.2
2022-07-30T03:36:11.626Z,985.3
2022-07-30T03:38:13.169Z,985.3
2022-07-30T03:40:14.698Z,985.3
2022-07-30T03:42:15.934Z,985.2
2022-07-30T03:44:16.980Z,985.3
2022-07-30T03:46:18.856Z,985.4
2022-07-30T03:48:19.897Z,985.4
2022-07-30T03:50:20.903Z,985.5
2022-07-30T03:52:22.679Z,985.4
2022-07-30T03:54:24.502Z,985.4
2022-07-30T03:56:26.312Z,985.4
2022-07-30T03:58:27.876Z,985.6
2022-07-30T04:00:28.909Z,985.6
2022-07-30T04:02:30.429Z,985.5
2022-07-30T04:04:31.672Z,985.6
2022-07-30T04:06:33.165Z,985.6
2022-07-30T04:08:34.131Z,985.6
2022-07-30T04:10:35.946Z,985.7
2022-07-30T04:12:37.613Z,985.6
2022-07-30T04:16:42.274Z,985.6
2022-07-30T04:18:42.566Z,985.8
2022-07-30T04:20:43.643Z,985.8
2022-07-30T04:22:45.085Z,985.8
2022-07-30T04:24:46.600Z,985.9
2022-07-30T04:26:48.116Z,985.8
2022-07-30T04:28:49.085Z,985.7
2022-07-30T04:32:51.742Z,985.8
2022-07-30T04:34:53.342Z,985.7
2022-07-30T04:36:54.677Z,985.8
2022-07-30T04:38:55.777Z,985.8
2022-07-30T04:40:57.183Z,985.8
2022-07-30T04:42:58.749Z,985.8
2022-07-30T04:45:00.239Z,985.8
2022-07-30T04:47:02.051Z,985.8
2022-07-30T04:49:03.571Z,985.8
2022-07-30T04:51:04.763Z,985.9
2022-07-30T04:53:06.634Z,985.8
2022-07-30T04:55:07.885Z,985.8
2022-07-30T04:57:09.654Z,985.9
2022-07-30T04:59:11.138Z,985.8
2022-07-30T05:01:12.233Z,985.9
2022-07-30T05:03:13.665Z,985.9
2022-07-30T05:05:14.887Z,986
2022-07-30T05:07:15.962Z,986
2022-07-30T05:09:17.001Z,986
2022-07-30T05:11:18.497Z,986
2022-07-30T05:13:19.880Z,985.9
2022-07-30T05:15:21.553Z,986
2022-07-30T05:17:22.932Z,986
2022-07-30T05:19:24.795Z,986
2022-07-30T05:21:26.461Z,986
2022-07-30T05:23:27.928Z,986
2022-07-30T05:25:29.487Z,986
2022-07-30T05:27:31.318Z,986
2022-07-30T05:29:32.887Z,986
2022-07-30T05:31:33.850Z,986
2022-07-30T05:33:37.274Z,986
2022-07-30T05:35:37.056Z,986
2022-07-30T05:37:38.166Z,986
2022-07-30T05:41:41.700Z,985.9
2022-07-30T05:43:42.779Z,986
2022-07-30T05:45:44.293Z,986.1
2022-07-30T05:47:46.212Z,986
2022-07-30T05:49:47.664Z,986.1
2022-07-30T05:51:57.650Z,986.1
2022-07-30T05:53:50.067Z,986.1
2022-07-30T05:55:51.029Z,986.1
2022-07-30T05:57:51.981Z,986
2022-07-30T05:59:52.956Z,986
2022-07-30T06:01:54.816Z,985.9
2022-07-30T06:03:56.423Z,986
2022-07-30T06:05:57.454Z,986.1
2022-07-30T06:07:58.272Z,986.1
2022-07-30T06:09:59.609Z,986.1
2022-07-30T06:12:01.041Z,986.1
2022-07-30T06:14:02.098Z,986.1
2022-07-30T06:16:03.969Z,986.1
2022-07-30T06:18:05.302Z,986.1
2022-07-30T06:20:06.692Z,986.1
2022-07-30T06:22:08.362Z,986.1
2022-07-30T06:24:09.798Z,986.2
2022-07-30T06:26:10.759Z,986.2
2022-07-30T06:28:35.024Z,986.2
2022-07-30T06:30:13.173Z,986.2
2022-07-30T06:32:14.605Z,986.1
2022-07-30T06:34:15.370Z,986.1
2022-07-30T06:36:16.735Z,986.1
2022-07-30T06:38:17.511Z,986.1
2022-07-30T06:40:19.209Z,986.1
2022-07-30T06:42:20.756Z,986.2
2022-07-30T06:44:22.428Z,986
2022-07-30T06:46:24.145Z,986.1
2022-07-30T06:50:25.948Z,986.2
2022-07-30T06:52:27.564Z,986.1
2022-07-30T06:56:30.088Z,986.2
2022-07-30T06:58:31.885Z,986.2
2022-07-30T07:00:33.465Z,986.2
2022-07-30T07:02:34.353Z,986.1
2022-07-30T07:04:35.667Z,986.2
2022-07-30T07:06:36.715Z,986.2
2022-07-30T07:08:38.108Z,986.2
2022-07-30T07:10:39.628Z,986.1
2022-07-30T07:12:40.747Z,986.2
2022-07-30T07:14:41.925Z,986.2
2022-07-30T07:16:43.454Z,986.2
2022-07-30T07:18:45.022Z,986.3
2022-07-30T07:20:46.589Z,986.3
2022-07-30T07:22:47.388Z,986.3
2022-07-30T07:24:48.292Z,986.3
2022-07-30T07:26:50.815Z,986.3
2022-07-30T07:28:52.159Z,986.3
2022-07-30T07:30:53.912Z,986.4
2022-07-30T07:32:55.214Z,986.4
2022-07-30T07:36:58.463Z,986.4
2022-07-30T07:38:59.314Z,986.4
2022-07-30T07:41:00.365Z,986.4
2022-07-30T07:43:01.922Z,986.5
2022-07-30T07:45:03.541Z,986.5
2022-07-30T07:47:04.815Z,986.5
2022-07-30T07:49:06.594Z,986.5
2022-07-30T07:51:09.530Z,986.5
2022-07-30T07:53:09.117Z,986.5
2022-07-30T07:55:10.290Z,986.4
2022-07-30T07:57:12.194Z,986.5
2022-07-30T07:59:12.940Z,986.5
2022-07-30T08:01:14.472Z,986.5
2022-07-30T08:03:15.651Z,986.5
2022-07-30T08:05:17.348Z,986.5
2022-07-30T08:07:18.394Z,986.4
2022-07-30T08:09:19.481Z,986.5
2022-07-30T08:11:20.789Z,986.5
2022-07-30T08:12:04.524Z,986.4
2022-07-30T08:16:07.075Z,986.5
2022-07-30T08:18:08.072Z,986.5
2022-07-30T08:20:09.566Z,986.4
2022-07-30T08:22:10.709Z,986.5
2022-07-30T08:24:11.859Z,986.5
2022-07-30T08:26:13.182Z,986.5
2022-07-30T08:28:20.108Z,986.5
2022-07-30T08:30:16.503Z,986.5
2022-07-30T08:32:18.096Z,986.5
2022-07-30T08:34:19.853Z,986.5
2022-07-30T08:36:22.830Z,986.5
2022-07-30T08:38:22.279Z,986.5
2022-07-30T08:40:23.485Z,986.5
2022-07-30T08:42:24.589Z,986.5
2022-07-30T08:44:25.613Z,986.5
2022-07-30T08:48:27.916Z,986.5
2022-07-30T08:50:28.819Z,986.6
2022-07-30T08:52:29.585Z,986.6
2022-07-30T08:54:30.738Z,986.7
2022-07-30T08:56:31.665Z,986.6
2022-07-30T08:58:32.570Z,986.6
2022-07-30T09:00:33.429Z,986.6
2022-07-30T09:02:34.360Z,986.6
2022-07-30T09:04:35.726Z,986.6
2022-07-30T09:06:36.833Z,986.6
2022-07-30T09:08:38.006Z,986.6
2022-07-30T09:10:39.174Z,986.6
2022-07-30T09:12:40.760Z,986.7
2022-07-30T09:14:41.950Z,986.7
2022-07-30T09:16:43.177Z,986.6
2022-07-30T09:18:45.002Z,986.6
2022-07-30T09:20:45.908Z,986.6
2022-07-30T09:22:47.738Z,986.6
2022-07-30T09:24:49.357Z,986.6
2022-07-30T09:26:50.500Z,986.7
2022-07-30T09:28:51.447Z,986.6
2022-07-30T09:30:52.241Z,986.7
2022-07-30T09:32:53.631Z,986.6
2022-07-30T09:34:54.671Z,986.7
2022-07-30T09:36:56.222Z,986.6
2022-07-30T09:38:57.659Z,986.6
2022-07-30T09:40:58.924Z,986.7
2022-07-30T09:42:59.812Z,986.6
2022-07-30T09:45:01.512Z,986.7
2022-07-30T09:47:02.571Z,986.6
2022-07-30T09:49:04.179Z,986.7
2022-07-30T09:51:05.539Z,986.6
2022-07-30T09:53:07.130Z,986.7
2022-07-30T09:55:08.136Z,986.8
2022-07-30T09:57:22.926Z,986.7
2022-07-30T09:59:18.424Z,986.7
2022-07-30T10:01:12.431Z,986.7
2022-07-30T10:03:21.507Z,986.7
2022-07-30T10:05:15.248Z,986.6
2022-07-30T10:07:15.529Z,986.7
2022-07-30T10:09:16.982Z,986.6
2022-07-30T10:13:20.693Z,986.6
2022-07-30T10:15:19.683Z,986.6
2022-07-30T10:17:20.565Z,986.7
2022-07-30T10:19:23.369Z,986.7
2022-07-30T10:21:23.153Z,986.7
2022-07-30T10:23:27.213Z,986.6
2022-07-30T10:25:27.736Z,986.6
2022-07-30T10:27:27.593Z,986.7
2022-07-30T10:29:31.635Z,986.7
2022-07-30T10:31:47.906Z,986.7
2022-07-30T10:33:35.374Z,986.6
2022-07-30T10:35:35.103Z,986.7
2022-07-30T10:39:34.939Z,986.6
2022-07-30T10:41:42.438Z,986.6
2022-07-30T10:43:38.168Z,986.6
2022-07-30T10:45:41.807Z,986.6
2022-07-30T10:47:48.945Z,986.6
2022-07-30T10:49:42.984Z,986.6
2022-07-30T10:51:42.864Z,986.6
2022-07-30T10:53:43.769Z,986.7
2022-07-30T10:55:44.893Z,986.6
2022-07-30T10:57:46.156Z,986.7
2022-07-30T10:59:47.762Z,986.6
2022-07-30T11:01:51.923Z,986.6
2022-07-30T11:03:50.123Z,986.6
2022-07-30T11:07:51.972Z,986.6
2022-07-30T11:10:04.344Z,986.6
2022-07-30T11:11:59.906Z,986.6
2022-07-30T11:13:55.886Z,986.6
2022-07-30T11:15:57.268Z,986.6
2022-07-30T11:17:58.097Z,986.5
2022-07-30T11:19:59.442Z,986.6
2022-07-30T11:22:00.831Z,986.6
2022-07-30T11:24:01.673Z,986.5
2022-07-30T11:26:03.219Z,986.5
2022-07-30T11:28:04.376Z,986.5
2022-07-30T11:30:06.137Z,986.5
2022-07-30T11:32:07.769Z,986.5
2022-07-30T11:34:09.005Z,986.5
2022-07-30T11:36:11.461Z,986.5
2022-07-30T11:38:12.332Z,986.4
2022-07-30T11:40:13.891Z,986.4
2022-07-30T11:42:15.658Z,986.4
2022-07-30T11:44:17.261Z,986.5
2022-07-30T11:46:18.145Z,986.5
2022-07-30T11:48:19.786Z,986.5
2022-07-30T11:50:21.406Z,986.4
2022-07-30T11:54:23.746Z,986.5
2022-07-30T11:56:25.259Z,986.5
2022-07-30T11:58:26.890Z,986.5
2022-07-30T12:00:27.923Z,986.4
2022-07-30T12:02:29.448Z,986.5
2022-07-30T12:04:30.231Z,986.5
2022-07-30T12:06:31.513Z,986.5
2022-07-30T12:08:36.228Z,986.4
2022-07-30T12:10:33.809Z,986.4
2022-07-30T12:12:35.304Z,986.4
2022-07-30T12:14:36.930Z,986.4
2022-07-30T12:16:38.258Z,986.5
2022-07-30T12:18:39.257Z,986.4
2022-07-30T12:20:40.692Z,986.5
2022-07-30T12:22:41.963Z,986.3
2022-07-30T12:24:43.655Z,986.4
2022-07-30T12:26:44.765Z,986.3
2022-07-30T12:28:45.778Z,986.5
2022-07-30T12:30:47.467Z,986.3
2022-07-30T12:32:48.771Z,986.3
2022-07-30T12:34:50.474Z,986.3
2022-07-30T12:36:51.651Z,986.4
2022-07-30T12:38:53.073Z,986.3
2022-07-30T12:40:53.834Z,986.3
2022-07-30T12:42:54.813Z,986.4
2022-07-30T12:44:56.541Z,986.3
2022-07-30T12:46:58.077Z,986.3
2022-07-30T12:49:02.767Z,986.3
2022-07-30T12:51:01.026Z,986.3
2022-07-30T12:53:01.833Z,986.3
2022-07-30T12:55:02.895Z,986.2
2022-07-30T12:57:04.194Z,986.1
2022-07-30T12:59:05.155Z,986.1
2022-07-30T13:01:06.354Z,986.1
2022-07-30T13:03:07.184Z,986.1
2022-07-30T13:05:10.501Z,986.1
2022-07-30T13:07:08.951Z,986.2
2022-07-30T13:09:09.960Z,986.2
2022-07-30T13:11:11.053Z,986.1
2022-07-30T13:13:11.902Z,986.1
2022-07-30T13:15:13.309Z,986.2
2022-07-30T13:17:14.927Z,986.1
2022-07-30T13:19:16.164Z,986.1
2022-07-30T13:21:17.464Z,986.1
2022-07-30T13:23:19.183Z,986.1
2022-07-30T13:25:20.455Z,986.1
2022-07-30T13:27:21.738Z,986.1
2022-07-30T13:29:22.683Z,986.1
2022-07-30T13:31:23.519Z,986
2022-07-30T13:35:25.897Z,985.9
2022-07-30T13:37:36.201Z,986
2022-07-30T13:39:28.585Z,986
2022-07-30T13:41:29.782Z,985.9
2022-07-30T13:43:32.142Z,985.9
2022-07-30T13:45:32.132Z,986
2022-07-30T13:47:32.879Z,985.9
2022-07-30T13:49:34.095Z,985.9
2022-07-30T13:51:35.744Z,985.9
2022-07-30T13:53:36.928Z,985.9
2022-07-30T13:55:37.757Z,985.8
2022-07-30T13:57:38.966Z,985.8
2022-07-30T13:59:40.547Z,985.8
2022-07-30T14:01:42.248Z,985.8
2022-07-30T14:03:48.633Z,985.8
2022-07-30T14:05:44.954Z,985.7
2022-07-30T14:07:46.493Z,985.7
2022-07-30T14:11:49.278Z,985.7
2022-07-30T14:13:50.736Z,985.6
2022-07-30T14:17:55.932Z,985.7
2022-07-30T14:19:54.541Z,985.8
2022-07-30T14:21:55.545Z,985.8
2022-07-30T14:23:56.301Z,985.7
2022-07-30T14:25:57.889Z,985.7
2022-07-30T14:27:59.508Z,985.7
2022-07-30T14:30:01.008Z,985.7
2022-07-30T14:32:02.244Z,985.7
2022-07-30T14:34:03.438Z,985.8
2022-07-30T14:36:04.365Z,985.8
2022-07-30T14:38:05.983Z,985.7
2022-07-30T14:40:06.877Z,985.8
2022-07-30T14:42:08.294Z,985.8
2022-07-30T14:44:09.342Z,985.7
2022-07-30T14:46:10.666Z,985.7
2022-07-30T14:48:11.528Z,985.6
2022-07-30T14:50:12.896Z,985.7
2022-07-30T14:52:14.327Z,985.7
2022-07-30T14:54:15.732Z,985.7
2022-07-30T14:56:17.355Z,985.7
2022-07-30T14:57:00.573Z,985.7
2022-07-30T14:59:01.668Z,985.8
2022-07-30T15:01:03.213Z,985.8
2022-07-30T15:03:04.550Z,985.7
2022-07-30T15:05:06.323Z,985.7
2022-07-30T15:07:07.980Z,985.7
2022-07-30T15:09:09.623Z,985.7
2022-07-30T15:11:10.884Z,985.6
2022-07-30T15:13:12.882Z,985.7
2022-07-30T15:15:14.698Z,985.8
2022-07-30T15:17:16.156Z,985.6
2022-07-30T15:19:17.243Z,985.8
2022-07-30T15:21:18.360Z,985.8
2022-07-30T15:23:19.288Z,985.6
2022-07-30T15:25:20.948Z,985.8
2022-07-30T15:27:27.772Z,985.7
2022-07-30T15:29:23.529Z,985.7
2022-07-30T15:31:24.320Z,985.6
2022-07-30T15:33:25.740Z,985.6
2022-07-30T15:37:28.798Z,985.8
2022-07-30T15:39:29.565Z,985.8
2022-07-30T15:41:30.561Z,985.7
2022-07-30T15:43:31.475Z,985.8
2022-07-30T15:47:33.851Z,985.7
2022-07-30T15:49:35.400Z,985.7
2022-07-30T15:53:37.606Z,985.8
2022-07-30T15:55:47.540Z,985.7
2022-07-30T15:57:40.226Z,985.7
2022-07-30T15:59:41.579Z,985.8
2022-07-30T16:01:43.315Z,985.8
2022-07-30T16:03:44.527Z,985.8
2022-07-30T16:05:51.041Z,985.7
2022-07-30T16:07:47.286Z,985.7
2022-07-30T16:09:48.789Z,985.7
2022-07-30T16:11:50.150Z,985.7
2022-07-30T16:13:51.079Z,985.7
2022-07-30T16:15:52.610Z,985.7
2022-07-30T16:17:53.765Z,985.7
2022-07-30T16:19:54.697Z,985.7
2022-07-30T16:21:55.749Z,985.7
2022-07-30T16:23:56.736Z,985.8
2022-07-30T16:25:58.124Z,985.7
2022-07-30T16:27:59.211Z,985.7
2022-07-30T16:30:00.030Z,985.6
2022-07-30T16:32:01.284Z,985.7
2022-07-30T16:34:02.073Z,985.6
2022-07-30T16:36:03.805Z,985.7
2022-07-30T16:38:05.075Z,985.7
2022-07-30T16:40:06.439Z,985.6
2022-07-30T16:42:07.979Z,985.6
2022-07-30T16:44:09.411Z,985.7
2022-07-30T16:46:10.736Z,985.7
2022-07-30T16:50:13.911Z,985.6
2022-07-30T16:52:15.636Z,985.7
2022-07-30T16:54:17.040Z,985.6
2022-07-30T16:56:18.445Z,985.6
2022-07-30T16:58:19.415Z,985.6
2022-07-30T17:00:20.877Z,985.8
2022-07-30T17:02:22.353Z,985.7
2022-07-30T17:04:23.943Z,985.7
2022-07-30T17:06:25.612Z,985.7
2022-07-30T17:08:27.051Z,985.6
2022-07-30T17:10:28.063Z,985.7
2022-07-30T17:12:29.087Z,985.7
2022-07-30T17:14:30.807Z,985.7
2022-07-30T17:18:32.709Z,985.7
2022-07-30T17:20:34.327Z,985.8
2022-07-30T17:22:35.123Z,985.8
2022-07-30T17:24:36.894Z,985.7
2022-07-30T17:28:39.979Z,985.8
2022-07-30T17:30:41.166Z,985.7
2022-07-30T17:32:42.796Z,985.8
2022-07-30T17:34:44.420Z,985.8
2022-07-30T17:36:50.203Z,985.8
2022-07-30T17:38:46.918Z,985.8
2022-07-30T17:40:48.008Z,985.8
2022-07-30T17:42:49.137Z,985.9
2022-07-30T17:44:50.374Z,985.9
2022-07-30T17:46:51.893Z,985.9
2022-07-30T17:48:53.111Z,985.9
2022-07-30T17:50:54.854Z,985.9
2022-07-30T17:52:55.741Z,985.9
2022-07-30T17:54:57.339Z,985.9
2022-07-30T17:56:58.634Z,985.9
2022-07-30T17:58:59.779Z,985.9
2022-07-30T18:01:01.317Z,986
2022-07-30T18:03:02.613Z,986
2022-07-30T18:05:03.825Z,986
2022-07-30T18:07:05.020Z,986
2022-07-30T18:09:06.806Z,986
2022-07-30T18:11:11.939Z,986.1
2022-07-30T18:15:11.201Z,986.1
2022-07-30T18:17:14.347Z,986.1
2022-07-30T18:19:22.452Z,986.1
2022-07-30T18:21:15.357Z,986.1
2022-07-30T18:23:16.580Z,986.1
2022-07-30T18:25:18.160Z,986.2
2022-07-30T18:27:19.065Z,986.4
2022-07-30T18:29:20.924Z,986.3
2022-07-30T18:31:21.383Z,986.4
2022-07-30T18:33:23.205Z,986.4
2022-07-30T18:35:24.549Z,986.4
2022-07-30T18:37:26.023Z,986.5
2022-07-30T18:41:28.117Z,986.5
2022-07-30T18:43:29.576Z,986.5
2022-07-30T18:47:32.122Z,986.7
2022-07-30T18:49:36.912Z,986.6
2022-07-30T18:51:34.322Z,986.6
2022-07-30T18:53:36.108Z,986.6
2022-07-30T18:55:37.572Z,986.6
2022-07-30T18:57:38.873Z,986.6
2022-07-30T18:59:40.510Z,986.6
2022-07-30T19:01:42.351Z,986.6
2022-07-30T19:03:43.445Z,986.6
2022-07-30T19:05:44.523Z,986.7
2022-07-30T19:07:55.384Z,986.6
2022-07-30T19:09:47.466Z,986.7
2022-07-30T19:11:49.075Z,986.7
2022-07-30T19:13:50.605Z,986.7
2022-07-30T19:15:51.916Z,986.7
2022-07-30T19:17:53.661Z,986.7
2022-07-30T19:19:54.899Z,986.8
2022-07-30T19:21:56.218Z,986.8
2022-07-30T19:23:57.381Z,986.9
2022-07-30T19:25:58.971Z,987
2022-07-30T19:28:00.259Z,986.9
2022-07-30T19:30:01.723Z,987
2022-07-30T19:32:03.796Z,987
2022-07-30T19:34:04.569Z,987
2022-07-30T19:36:05.744Z,987
2022-07-30T19:38:06.660Z,987
2022-07-30T19:40:07.528Z,987.1
2022-07-30T19:42:08.911Z,987.1
2022-07-30T19:46:11.799Z,987.1
2022-07-30T19:48:13.387Z,987.1
2022-07-30T19:50:14.951Z,987.1
2022-07-30T19:52:23.757Z,987.2
2022-07-30T19:54:17.341Z,987.2
2022-07-30T19:56:18.622Z,987.2
2022-07-30T19:58:19.969Z,987.2
2022-07-30T20:00:24.751Z,987.2
2022-07-30T20:02:22.748Z,987.2
2022-07-30T20:04:23.770Z,987.3
2022-07-30T20:06:24.986Z,987.2
2022-07-30T20:08:26.303Z,987.3
2022-07-30T20:10:27.374Z,987.3
2022-07-30T20:12:28.970Z,987.3
2022-07-30T20:14:29.928Z,987.3
2022-07-30T20:16:31.477Z,987.3
2022-07-30T20:18:32.996Z,987.4
2022-07-30T20:20:34.109Z,987.3
2022-07-30T20:22:35.478Z,987.4
2022-07-30T20:24:37.000Z,987.5
2022-07-30T20:26:38.772Z,987.4
2022-07-30T20:28:39.863Z,987.5
2022-07-30T20:30:41.424Z,987.5
2022-07-30T20:32:46.462Z,987.4
2022-07-30T20:34:43.965Z,987.4
2022-07-30T20:36:44.943Z,987.4
2022-07-30T20:38:46.260Z,987.5
2022-07-30T20:40:47.755Z,987.4
2022-07-30T20:42:48.984Z,987.4
2022-07-30T20:44:50.640Z,987.4
2022-07-30T20:46:52.586Z,987.5
2022-07-30T20:48:53.304Z,987.4
2022-07-30T20:50:55.135Z,987.4
2022-07-30T20:52:56.367Z,987.5
2022-07-30T20:54:58.016Z,987.5
2022-07-30T20:56:59.716Z,987.5
2022-07-30T20:59:01.172Z,987.5
2022-07-30T21:01:02.914Z,987.5
2022-07-30T21:03:03.609Z,987.5
2022-07-30T21:05:04.916Z,987.5
2022-07-30T21:07:06.604Z,987.5
2022-07-30T21:11:09.671Z,987.5
2022-07-30T21:13:10.492Z,987.5
2022-07-30T21:15:15.813Z,987.5
2022-07-30T21:17:13.267Z,987.5
2022-07-30T21:19:15.060Z,987.5
2022-07-30T21:21:16.080Z,987.6
2022-07-30T21:23:17.621Z,987.5
2022-07-30T21:25:19.450Z,987.5
2022-07-30T21:27:20.900Z,987.5
2022-07-30T21:29:22.058Z,987.5
2022-07-30T21:31:28.521Z,987.6
2022-07-30T21:33:24.125Z,987.5
2022-07-30T21:35:31.890Z,987.5
2022-07-30T21:37:27.098Z,987.5
2022-07-30T21:39:29.330Z,987.5
2022-07-30T21:41:37.615Z,987.5
2022-07-30T21:44:15.189Z,987.5
2022-07-30T21:46:25.113Z,987.5
2022-07-30T21:48:18.605Z,987.5
2022-07-30T21:50:19.797Z,987.5
2022-07-30T21:52:21.458Z,987.5
2022-07-30T21:54:26.531Z,987.6
2022-07-30T21:56:24.080Z,987.6
2022-07-30T21:58:26.541Z,987.5
2022-07-30T22:00:27.006Z,987.5
2022-07-30T22:04:29.704Z,987.6
2022-07-30T22:06:31.244Z,987.6
2022-07-30T22:08:32.535Z,987.5
2022-07-30T22:10:33.212Z,987.6
2022-07-30T22:12:34.407Z,987.5
2022-07-30T22:14:35.571Z,987.5
2022-07-30T22:16:37.386Z,987.6
2022-07-30T22:18:38.396Z,987.6
2022-07-30T22:20:39.531Z,987.6
2022-07-30T22:22:41.414Z,987.6
2022-07-30T22:24:42.973Z,987.7
2022-07-30T22:26:44.573Z,987.7
2022-07-30T22:28:45.930Z,987.6
2022-07-30T22:30:47.650Z,987.7
2022-07-30T22:32:49.115Z,987.6
2022-07-30T22:34:49.981Z,987.8
2022-07-30T22:36:51.455Z,987.6
2022-07-30T22:38:58.411Z,987.7
2022-07-30T22:40:54.253Z,987.6
2022-07-30T22:42:55.405Z,987.6
2022-07-30T22:44:56.574Z,987.7
2022-07-30T22:46:57.724Z,987.6
2022-07-30T22:48:59.106Z,987.7
2022-07-30T22:51:00.501Z,987.6
2022-07-30T22:55:08.929Z,987.6
2022-07-30T22:57:05.376Z,987.6
2022-07-30T22:59:06.956Z,987.6
2022-07-30T23:01:08.165Z,987.6
2022-07-30T23:03:10.065Z,987.6
2022-07-30T23:05:11.558Z,987.6
2022-07-30T23:07:13.952Z,987.6
2022-07-30T23:09:14.048Z,987.6
2022-07-30T23:12:33.458Z,987.6
2022-07-30T23:13:16.700Z,987.6
2022-07-30T23:15:18.380Z,987.6
2022-07-30T23:17:19.445Z,987.6
2022-07-30T23:19:21.830Z,987.7
2022-07-30T23:23:23.659Z,987.6
2022-07-30T23:25:24.741Z,987.6
2022-07-30T23:29:27.208Z,987.6
2022-07-30T23:31:28.277Z,987.5
2022-07-30T23:33:29.484Z,987.6
2022-07-30T23:35:31.080Z,987.6
2022-07-30T23:37:37.849Z,987.6
2022-07-30T23:39:33.531Z,987.6
2022-07-30T23:41:35.454Z,987.6
2022-07-30T23:43:36.962Z,987.6
2022-07-30T23:45:38.375Z,987.6
2022-07-30T23:47:52.916Z,987.6
2022-07-30T23:49:40.764Z,987.6
2022-07-30T23:51:42.184Z,987.6
2022-07-30T23:53:43.599Z,987.6
2022-07-30T23:55:45.109Z,987.5
2022-07-30T23:57:46.323Z,987.6
2022-07-30T23:59:48.019Z,987.6
